LYVR

Vršac International Airport

Serbia
TAF LYVR 182300Z 1900/1924 31006KT 9999 SCT012 BKN033 TX03/1912Z TNM01/1906Z TEMPO 1900/1906 3000 BR BKN006 BKN033 BECMG 1915/1917 13015G25KT TEMPO 1920/1924 13020G35KT
Issued Valid From Valid To
Jan-18 @ 23:00 UTC
(3 hours ago)
Jan-19 @ 00:00 UTC
(2 hours ago)
Jan-20 @ 00:00 UTC
(in 22 hours)
Jan-19 @ 00:00 to Jan-19 @ 15:00
TAF LYVR 182300Z 1900/1924 31006KT 9999 SCT012 BKN033 TX03/1912Z TNM01/1906Z
Wind Visibility Clouds
310° at 6 knots 10,000+ meters
  • Scattered at 1,200' AGL
  • Broken at 3,300' AGL
Temporary Jan-19 @ 00:00 to Jan-19 @ 06:00
TEMPO 1900/1906 3000 BR BKN006 BKN033
Visibility Clouds Conditions
2,993 meters
  • Broken at 600' AGL
  • Broken at 3,300' AGL
  • Mist
Becoming Jan-19 @ 15:00 to Jan-20 @ 00:00
BECMG 1915/1917 13015G25KT
Wind Visibility Clouds
130° at 15 knots
 Gusting to 25 knots
10,000+ meters
  • Scattered at 1,200' AGL
  • Broken at 3,300' AGL
Temporary Jan-19 @ 20:00 to Jan-20 @ 00:00
TEMPO 1920/1924 13020G35KT
Wind
130° at 20 knots
 Gusting to 35 knots
TAF LYVR 182300Z 1900/1924 31006KT 9999 SCT012 BKN033 TX03/1912Z TNM01/1906Z TEMPO 1900/1906 3000 BR BKN006 BKN033 BECMG 1915/1917 13015G25KT TEMPO 1920/1924 13020G35KT
Issued Jan-18 @ 23:00 UTC
(3 hours ago)
Valid From Jan-19 @ 00:00 UTC
(2 hours ago)
Valid To Jan-20 @ 00:00 UTC
(in 22 hours)
Jan-19 @ 00:00 - Jan-19 @ 15:00
Wind Visibility
310° at 6 knots 10,000+ meters
Clouds
  • Scattered at 1,200' AGL
  • Broken at 3,300' AGL
Temporary Jan-19 @ 00:00 - Jan-19 @ 06:00
Clouds
  • Broken at 600' AGL
  • Broken at 3,300' AGL
Conditions
  • Mist
Becoming Jan-19 @ 15:00 - Jan-20 @ 00:00
Wind Visibility
130° at 15 knots
 Gusting to 25 knots
10,000+ meters
Clouds
  • Scattered at 1,200' AGL
  • Broken at 3,300' AGL
Temporary Jan-19 @ 20:00 - Jan-20 @ 00:00
Wind
130° at 20 knots
 Gusting to 35 knots